createdAt,value
2018-08-28T00:03:43.102Z,4
2018-08-28T00:08:45.717Z,6
2018-08-28T00:13:47.994Z,5
2018-08-28T00:18:50.425Z,4
2018-08-28T00:23:52.868Z,5
2018-08-28T00:28:55.352Z,6
2018-08-28T00:33:57.927Z,5
2018-08-28T00:39:00.261Z,4
2018-08-28T00:44:02.826Z,4
2018-08-28T00:49:05.172Z,5
2018-08-28T00:54:07.715Z,5
2018-08-28T00:59:10.100Z,4
2018-08-28T01:04:12.881Z,5
2018-08-28T01:09:15.008Z,5
2018-08-28T01:14:17.459Z,5
2018-08-28T01:19:19.915Z,6
2018-08-28T01:24:22.415Z,5
2018-08-28T01:29:24.848Z,5
2018-08-28T01:39:29.774Z,6
2018-08-28T01:44:33.677Z,5
2018-08-28T01:49:34.702Z,5
2018-08-28T01:54:37.127Z,7
2018-08-28T01:59:39.576Z,5
2018-08-28T02:04:42.037Z,5
2018-08-28T02:09:44.627Z,5
2018-08-28T02:14:47.120Z,6
2018-08-28T02:19:49.573Z,6
2018-08-28T02:24:51.915Z,7
2018-08-28T02:29:54.358Z,5
2018-08-28T02:34:56.826Z,5
2018-08-28T02:39:59.532Z,6
2018-08-28T02:45:01.752Z,5
2018-08-28T02:50:04.180Z,8
2018-08-28T02:55:06.693Z,5
2018-08-28T03:00:09.239Z,5
2018-08-28T03:05:11.590Z,5
2018-08-28T03:10:15.115Z,6
2018-08-28T03:15:16.473Z,6
2018-08-28T03:20:18.912Z,7
2018-08-28T03:25:21.542Z,6
2018-08-28T03:30:23.850Z,7
2018-08-28T03:35:26.287Z,7
2018-08-28T03:40:28.760Z,8
2018-08-28T03:45:31.312Z,7
2018-08-28T03:50:33.684Z,10
2018-08-28T03:55:36.158Z,7
2018-08-28T04:00:38.578Z,8
2018-08-28T04:05:41.075Z,6
2018-08-28T04:10:43.527Z,9
2018-08-28T04:15:46.297Z,8
2018-08-28T04:20:48.419Z,7
2018-08-28T04:25:57.038Z,8
2018-08-28T04:30:54.630Z,8
2018-08-28T04:35:55.795Z,11
2018-08-28T04:40:58.241Z,8
2018-08-28T04:46:00.876Z,8
2018-08-28T04:51:03.236Z,9
2018-08-28T04:56:08.359Z,10
2018-08-28T05:01:12.109Z,6
2018-08-28T05:06:10.534Z,7
2018-08-28T05:11:13.025Z,8
2018-08-28T05:16:15.548Z,9
2018-08-28T05:21:18.040Z,7
2018-08-28T05:26:20.517Z,9
2018-08-28T05:31:22.840Z,7
2018-08-28T05:36:25.302Z,7
2018-08-28T05:41:27.736Z,9
2018-08-28T05:46:30.227Z,6
2018-08-28T05:51:33.417Z,10
2018-08-28T05:56:35.122Z,8
2018-08-28T06:01:37.610Z,10
2018-08-28T06:06:40.054Z,8
2018-08-28T06:11:42.840Z,8
2018-08-28T06:16:48.329Z,8
2018-08-28T06:21:47.442Z,9
2018-08-28T06:26:49.878Z,9
2018-08-28T06:31:52.641Z,9
2018-08-28T06:36:54.789Z,11
2018-08-28T06:41:57.325Z,11
2018-08-28T06:46:59.917Z,14
2018-08-28T06:52:02.241Z,12
2018-08-28T06:57:04.798Z,13
2018-08-28T07:02:10.811Z,12
2018-08-28T07:07:09.575Z,15
2018-08-28T07:12:11.990Z,19
2018-08-28T07:17:14.510Z,17
2018-08-28T07:22:16.935Z,16
2018-08-28T07:27:19.510Z,16
2018-08-28T07:32:21.825Z,14
2018-08-28T07:37:24.336Z,18
2018-08-28T15:34:40.807Z,14
2018-08-28T15:39:43.223Z,13
2018-08-28T15:44:45.511Z,12
2018-08-28T15:49:48.089Z,17
2018-08-28T15:54:50.378Z,13
2018-08-28T15:59:52.846Z,9
2018-08-28T16:04:55.590Z,19
2018-08-28T16:09:57.763Z,14
2018-08-28T16:15:00.206Z,14
2018-08-28T16:20:02.738Z,14
2018-08-28T16:25:05.219Z,10
2018-08-28T16:30:07.613Z,13
2018-08-28T16:35:10.069Z,14
2018-08-28T16:40:12.520Z,15
2018-08-28T16:45:15.046Z,17
2018-08-28T16:50:17.531Z,14
2018-08-28T16:55:19.885Z,14
2018-08-28T17:00:22.467Z,14
2018-08-28T17:05:24.806Z,21
2018-08-28T17:10:27.239Z,13
2018-08-28T17:15:29.779Z,13
2018-08-28T17:20:32.332Z,15
2018-08-28T17:25:34.624Z,17
2018-08-28T17:30:37.140Z,18
2018-08-28T17:35:39.618Z,18
2018-08-28T17:40:42.051Z,15
2018-08-28T17:45:44.603Z,13
2018-08-28T17:50:47.150Z,15
2018-08-28T17:55:49.406Z,16
2018-08-28T18:05:54.295Z,13
2018-08-28T18:10:56.788Z,14
2018-08-28T18:15:59.319Z,18
2018-08-28T18:21:01.728Z,14
2018-08-28T18:26:04.167Z,13
2018-08-28T18:31:06.596Z,14
2018-08-28T18:36:09.094Z,15
2018-08-28T18:41:11.567Z,16
2018-08-28T18:46:14.036Z,12
2018-08-28T18:51:16.419Z,18
2018-08-28T18:56:18.885Z,17
2018-08-28T19:01:21.350Z,16
2018-08-28T19:06:23.919Z,13
2018-08-28T19:11:26.427Z,15
2018-08-28T19:16:28.692Z,19
2018-08-28T19:21:31.456Z,15
2018-08-28T19:26:33.607Z,17
2018-08-28T19:31:36.160Z,15
2018-08-28T19:36:38.769Z,17
2018-08-28T19:41:40.984Z,14
2018-08-28T19:46:43.450Z,16
2018-08-28T19:51:45.932Z,15
2018-08-28T19:56:48.417Z,18
2018-08-28T20:01:50.817Z,18
2018-08-28T20:06:53.425Z,17
2018-08-28T20:11:55.726Z,16
2018-08-28T20:16:58.262Z,18
2018-08-28T20:22:00.974Z,16
2018-08-28T20:27:03.206Z,12
2018-08-28T20:32:05.801Z,15
2018-08-28T20:37:08.136Z,16
2018-08-28T20:42:10.536Z,15
2018-08-28T20:47:12.976Z,15
2018-08-28T20:52:15.707Z,18
2018-08-28T20:57:17.859Z,14
2018-08-28T21:02:20.398Z,14
2018-08-28T21:07:22.891Z,14
2018-08-28T21:12:25.227Z,15
2018-08-28T21:17:27.685Z,18
2018-08-28T21:22:30.159Z,15
2018-08-28T21:27:32.608Z,15
2018-08-28T21:32:35.144Z,16
2018-08-28T21:37:37.637Z,17
2018-08-28T21:42:39.990Z,17
2018-08-28T21:47:42.656Z,23
2018-08-28T21:52:44.891Z,18
2018-08-28T21:57:47.586Z,17
2018-08-28T22:02:50.460Z,16
2018-08-28T22:07:52.906Z,15
2018-08-28T22:12:56.430Z,15
2018-08-28T22:17:57.363Z,16
2018-08-28T22:22:59.867Z,15
2018-08-28T22:28:02.116Z,15
2018-08-28T22:33:04.639Z,18
2018-08-28T22:38:07.022Z,20
2018-08-28T22:43:09.478Z,23
2018-08-28T22:48:11.933Z,17
2018-08-28T22:53:14.661Z,17
2018-08-28T22:58:16.847Z,12
2018-08-28T23:03:19.416Z,16
2018-08-28T23:08:21.921Z,15
2018-08-28T23:13:24.382Z,18
2018-08-28T23:18:26.711Z,15
2018-08-28T23:23:29.202Z,14
2018-08-28T23:28:31.618Z,15
2018-08-28T23:33:34.107Z,12
2018-08-28T23:38:36.511Z,14
2018-08-28T23:43:38.994Z,14
2018-08-28T23:48:41.434Z,11
2018-08-28T23:53:43.938Z,16
2018-08-28T23:58:46.510Z,15
